sensor_id;sensor_type;location;lat;lon;timestamp;pressure;altitude;pressure_sealevel;temperature;humidity
20077;BME280;12348;42.710;23.378;2023-06-01T00:00:13;95268.44;;;12.81;100.00
20077;BME280;12348;42.710;23.378;2023-06-01T00:02:40;95272.34;;;12.89;100.00
20077;BME280;12348;42.710;23.378;2023-06-01T00:05:07;95273.63;;;12.91;100.00
20077;BME280;12348;42.710;23.378;2023-06-01T00:07:36;95275.31;;;12.87;100.00
20077;BME280;12348;42.710;23.378;2023-06-01T00:10:03;95278.13;;;12.82;100.00
20077;BME280;12348;42.710;23.378;2023-06-01T00:12:30;95283.13;;;12.75;100.00
20077;BME280;12348;42.710;23.378;2023-06-01T00:14:57;95280.34;;;12.66;100.00
20077;BME280;12348;42.710;23.378;2023-06-01T00:17:24;95272.72;;;12.68;100.00
20077;BME280;12348;42.710;23.378;2023-06-01T00:19:50;95271.72;;;12.64;100.00
20077;BME280;12348;42.710;23.378;2023-06-01T00:22:18;95265.13;;;12.70;100.00
20077;BME280;12348;42.710;23.378;2023-06-01T00:24:46;95271.59;;;12.69;100.00
20077;BME280;12348;42.710;23.378;2023-06-01T00:27:13;95269.22;;;12.68;100.00
20077;BME280;12348;42.710;23.378;2023-06-01T00:29:40;95271.13;;;12.67;100.00
20077;BME280;12348;42.710;23.378;2023-06-01T00:32:07;95268.91;;;12.69;100.00
20077;BME280;12348;42.710;23.378;2023-06-01T00:34:33;95276.53;;;12.67;100.00
20077;BME280;12348;42.710;23.378;2023-06-01T00:37:00;95285.44;;;12.68;100.00
20077;BME280;12348;42.710;23.378;2023-06-01T00:39:27;95281.41;;;12.65;100.00
20077;BME280;12348;42.710;23.378;2023-06-01T00:41:55;95269.13;;;12.59;100.00
20077;BME280;12348;42.710;23.378;2023-06-01T00:44:22;95279.03;;;12.64;100.00
20077;BME280;12348;42.710;23.378;2023-06-01T00:46:50;95274.31;;;12.69;100.00
20077;BME280;12348;42.710;23.378;2023-06-01T00:49:17;95273.22;;;12.56;100.00
20077;BME280;12348;42.710;23.378;2023-06-01T00:51:44;95272.47;;;12.51;100.00
20077;BME280;12348;42.710;23.378;2023-06-01T00:54:11;95273.59;;;12.50;100.00
20077;BME280;12348;42.710;23.378;2023-06-01T00:56:38;95274.69;;;12.49;100.00
20077;BME280;12348;42.710;23.378;2023-06-01T00:59:06;95277.72;;;12.47;100.00
20077;BME280;12348;42.710;23.378;2023-06-01T01:01:33;95280.41;;;12.47;100.00
20077;BME280;12348;42.710;23.378;2023-06-01T01:04:02;95284.97;;;12.47;100.00
20077;BME280;12348;42.710;23.378;2023-06-01T01:06:39;95286.09;;;12.46;100.00
20077;BME280;12348;42.710;23.378;2023-06-01T01:09:20;95287.28;;;12.40;100.00
20077;BME280;12348;42.710;23.378;2023-06-01T01:11:53;95289.56;;;12.32;100.00
20077;BME280;12348;42.710;23.378;2023-06-01T01:14:30;95276.41;;;12.45;100.00
20077;BME280;12348;42.710;23.378;2023-06-01T01:17:02;95272.09;;;12.44;100.00
20077;BME280;12348;42.710;23.378;2023-06-01T01:19:38;95278.91;;;12.55;100.00
20077;BME280;12348;42.710;23.378;2023-06-01T01:22:20;95279.91;;;12.59;100.00
20077;BME280;12348;42.710;23.378;2023-06-01T01:25:05;95277.72;;;12.61;100.00
20077;BME280;12348;42.710;23.378;2023-06-01T01:27:40;95285.53;;;12.63;100.00
20077;BME280;12348;42.710;23.378;2023-06-01T01:30:16;95286.19;;;12.54;100.00
20077;BME280;12348;42.710;23.378;2023-06-01T01:32:46;95288.63;;;12.56;100.00
20077;BME280;12348;42.710;23.378;2023-06-01T01:35:14;95283.28;;;12.51;100.00
20077;BME280;12348;42.710;23.378;2023-06-01T01:37:50;95279.50;;;12.52;100.00
20077;BME280;12348;42.710;23.378;2023-06-01T01:40:17;95283.91;;;12.48;100.00
20077;BME280;12348;42.710;23.378;2023-06-01T01:42:44;95279.09;;;12.45;100.00
20077;BME280;12348;42.710;23.378;2023-06-01T01:45:13;95283.50;;;12.41;100.00
20077;BME280;12348;42.710;23.378;2023-06-01T01:47:44;95285.03;;;12.28;100.00
20077;BME280;12348;42.710;23.378;2023-06-01T01:50:18;95288.63;;;12.23;100.00
20077;BME280;12348;42.710;23.378;2023-06-01T01:52:48;95294.56;;;12.25;100.00
20077;BME280;12348;42.710;23.378;2023-06-01T01:55:15;95292.66;;;12.26;100.00
20077;BME280;12348;42.710;23.378;2023-06-01T01:57:44;95297.06;;;12.35;100.00
20077;BME280;12348;42.710;23.378;2023-06-01T02:00:13;95293.50;;;12.40;100.00
20077;BME280;12348;42.710;23.378;2023-06-01T02:02:41;95296.19;;;12.40;100.00
20077;BME280;12348;42.710;23.378;2023-06-01T02:05:08;95298.47;;;12.33;100.00
20077;BME280;12348;42.710;23.378;2023-06-01T02:07:34;95293.13;;;12.28;100.00
20077;BME280;12348;42.710;23.378;2023-06-01T02:10:01;95291.66;;;12.22;100.00
20077;BME280;12348;42.710;23.378;2023-06-01T02:12:28;95296.84;;;12.18;100.00
20077;BME280;12348;42.710;23.378;2023-06-01T02:14:55;95291.81;;;12.11;100.00
20077;BME280;12348;42.710;23.378;2023-06-01T02:17:23;95298.72;;;12.18;100.00
20077;BME280;12348;42.710;23.378;2023-06-01T02:19:50;95299.44;;;12.23;100.00
20077;BME280;12348;42.710;23.378;2023-06-01T02:22:17;95295.22;;;12.17;100.00
20077;BME280;12348;42.710;23.378;2023-06-01T02:24:44;95294.72;;;12.15;100.00
20077;BME280;12348;42.710;23.378;2023-06-01T02:27:10;95295.97;;;12.04;100.00
20077;BME280;12348;42.710;23.378;2023-06-01T02:29:37;95298.47;;;12.00;100.00
20077;BME280;12348;42.710;23.378;2023-06-01T02:32:05;95300.38;;;12.00;100.00
20077;BME280;12348;42.710;23.378;2023-06-01T02:34:33;95300.81;;;11.88;100.00
20077;BME280;12348;42.710;23.378;2023-06-01T02:37:01;95307.91;;;11.84;100.00
20077;BME280;12348;42.710;23.378;2023-06-01T02:39:28;95301.25;;;11.76;100.00
20077;BME280;12348;42.710;23.378;2023-06-01T02:41:55;95309.38;;;11.71;100.00
20077;BME280;12348;42.710;23.378;2023-06-01T02:44:22;95308.38;;;11.67;100.00
20077;BME280;12348;42.710;23.378;2023-06-01T02:46:48;95307.50;;;11.72;100.00
20077;BME280;12348;42.710;23.378;2023-06-01T02:49:15;95301.25;;;11.76;100.00
20077;BME280;12348;42.710;23.378;2023-06-01T02:51:43;95299.34;;;11.77;100.00
20077;BME280;12348;42.710;23.378;2023-06-01T02:54:10;95301.59;;;11.70;100.00
20077;BME280;12348;42.710;23.378;2023-06-01T02:56:37;95302.41;;;11.70;100.00
20077;BME280;12348;42.710;23.378;2023-06-01T02:59:04;95301.59;;;11.70;100.00
20077;BME280;12348;42.710;23.378;2023-06-01T03:01:31;95301.59;;;11.70;100.00
20077;BME280;12348;42.710;23.378;2023-06-01T03:04:00;95298.44;;;11.81;100.00
20077;BME280;12348;42.710;23.378;2023-06-01T03:06:29;95298.00;;;11.74;100.00
20077;BME280;12348;42.710;23.378;2023-06-01T03:08:58;95301.44;;;11.80;100.00
20077;BME280;12348;42.710;23.378;2023-06-01T03:11:25;95307.66;;;11.80;100.00
20077;BME280;12348;42.710;23.378;2023-06-01T03:13:52;95307.91;;;11.79;100.00
20077;BME280;12348;42.710;23.378;2023-06-01T03:16:19;95311.88;;;11.86;100.00
20077;BME280;12348;42.710;23.378;2023-06-01T03:18:45;95312.31;;;11.94;100.00
20077;BME280;12348;42.710;23.378;2023-06-01T03:21:12;95312.31;;;11.94;100.00
20077;BME280;12348;42.710;23.378;2023-06-01T03:23:39;95313.91;;;11.95;100.00
20077;BME280;12348;42.710;23.378;2023-06-01T03:26:11;95316.56;;;12.00;100.00
20077;BME280;12348;42.710;23.378;2023-06-01T03:28:39;95310.75;;;12.25;100.00
20077;BME280;12348;42.710;23.378;2023-06-01T03:31:07;95316.44;;;12.56;100.00
20077;BME280;12348;42.710;23.378;2023-06-01T03:33:36;95313.19;;;12.41;100.00
20077;BME280;12348;42.710;23.378;2023-06-01T03:36:03;95303.69;;;12.43;100.00
20077;BME280;12348;42.710;23.378;2023-06-01T03:38:32;95305.47;;;12.94;100.00
20077;BME280;12348;42.710;23.378;2023-06-01T03:41:00;95307.31;;;13.99;100.00
20077;BME280;12348;42.710;23.378;2023-06-01T03:43:28;95309.38;;;14.92;100.00
20077;BME280;12348;42.710;23.378;2023-06-01T03:45:56;95317.38;;;14.66;100.00
20077;BME280;12348;42.710;23.378;2023-06-01T03:48:22;95321.09;;;14.78;100.00
20077;BME280;12348;42.710;23.378;2023-06-01T03:50:49;95323.81;;;14.78;100.00
20077;BME280;12348;42.710;23.378;2023-06-01T03:53:16;95324.06;;;14.99;100.00
20077;BME280;12348;42.710;23.378;2023-06-01T03:55:43;95315.72;;;15.27;100.00
20077;BME280;12348;42.710;23.378;2023-06-01T03:58:10;95310.53;;;15.08;100.00
20077;BME280;12348;42.710;23.378;2023-06-01T04:00:38;95311.81;;;15.59;100.00
20077;BME280;12348;42.710;23.378;2023-06-01T04:03:04;95312.53;;;16.26;100.00
20077;BME280;12348;42.710;23.378;2023-06-01T04:05:32;95301.84;;;17.61;100.00
20077;BME280;12348;42.710;23.378;2023-06-01T04:08:01;95309.69;;;19.13;100.00
20077;BME280;12348;42.710;23.378;2023-06-01T04:10:28;95305.00;;;20.40;100.00
20077;BME280;12348;42.710;23.378;2023-06-01T04:12:55;95310.13;;;21.61;100.00
20077;BME280;12348;42.710;23.378;2023-06-01T04:15:22;95306.03;;;21.23;98.88
20077;BME280;12348;42.710;23.378;2023-06-01T04:17:50;95315.13;;;21.11;96.12
20077;BME280;12348;42.710;23.378;2023-06-01T04:20:17;95315.69;;;21.48;90.85
20077;BME280;12348;42.710;23.378;2023-06-01T04:22:45;95310.94;;;21.96;90.49
20077;BME280;12348;42.710;23.378;2023-06-01T04:25:14;95310.31;;;21.87;88.38
20077;BME280;12348;42.710;23.378;2023-06-01T04:27:44;95312.03;;;21.76;89.46
20077;BME280;12348;42.710;23.378;2023-06-01T04:30:11;95318.31;;;21.13;90.88
20077;BME280;12348;42.710;23.378;2023-06-01T04:32:39;95322.19;;;21.12;90.78
20077;BME280;12348;42.710;23.378;2023-06-01T04:35:08;95317.19;;;21.62;90.07
20077;BME280;12348;42.710;23.378;2023-06-01T04:37:36;95326.06;;;21.90;87.07
20077;BME280;12348;42.710;23.378;2023-06-01T04:40:06;95325.13;;;22.18;85.83
20077;BME280;12348;42.710;23.378;2023-06-01T04:42:33;95321.19;;;22.54;83.66
20077;BME280;12348;42.710;23.378;2023-06-01T04:45:00;95325.34;;;23.29;80.82
20077;BME280;12348;42.710;23.378;2023-06-01T04:47:30;95330.63;;;22.76;80.85
20077;BME280;12348;42.710;23.378;2023-06-01T04:49:56;95324.19;;;22.88;83.21
20077;BME280;12348;42.710;23.378;2023-06-01T04:52:25;95325.72;;;23.05;81.12
20077;BME280;12348;42.710;23.378;2023-06-01T04:54:51;95331.81;;;22.94;82.77
20077;BME280;12348;42.710;23.378;2023-06-01T04:57:18;95330.28;;;24.46;79.87
20077;BME280;12348;42.710;23.378;2023-06-01T04:59:45;95324.31;;;25.89;71.36
20077;BME280;12348;42.710;23.378;2023-06-01T05:02:12;95327.44;;;25.87;69.14
20077;BME280;12348;42.710;23.378;2023-06-01T05:04:38;95331.38;;;25.86;69.49
20077;BME280;12348;42.710;23.378;2023-06-01T05:07:06;95335.72;;;24.12;75.55
20077;BME280;12348;42.710;23.378;2023-06-01T05:09:34;95332.72;;;22.44;83.37
20077;BME280;12348;42.710;23.378;2023-06-01T05:12:01;95326.66;;;22.54;87.33
20077;BME280;12348;42.710;23.378;2023-06-01T05:14:27;95335.31;;;23.37;84.52
20077;BME280;12348;42.710;23.378;2023-06-01T05:16:54;95332.88;;;23.32;83.85
20077;BME280;12348;42.710;23.378;2023-06-01T05:19:21;95332.88;;;23.32;85.18
20077;BME280;12348;42.710;23.378;2023-06-01T05:21:48;95339.38;;;23.93;82.33
20077;BME280;12348;42.710;23.378;2023-06-01T05:24:15;95343.19;;;23.62;82.33
20077;BME280;12348;42.710;23.378;2023-06-01T05:26:43;95335.59;;;24.05;80.12
20077;BME280;12348;42.710;23.378;2023-06-01T05:29:11;95334.28;;;23.45;82.85
20077;BME280;12348;42.710;23.378;2023-06-01T05:31:37;95328.78;;;22.22;88.48
20077;BME280;12348;42.710;23.378;2023-06-01T05:34:04;95329.72;;;21.31;95.01
20077;BME280;12348;42.710;23.378;2023-06-01T05:36:31;95329.22;;;21.57;99.43
20077;BME280;12348;42.710;23.378;2023-06-01T05:38:58;95324.72;;;22.35;92.16
20077;BME280;12348;42.710;23.378;2023-06-01T05:41:25;95322.50;;;22.41;96.55
20077;BME280;12348;42.710;23.378;2023-06-01T05:43:54;95321.22;;;23.88;85.11
20077;BME280;12348;42.710;23.378;2023-06-01T05:46:20;95324.91;;;22.85;88.25
20077;BME280;12348;42.710;23.378;2023-06-01T05:48:47;95328.97;;;23.33;88.20
20077;BME280;12348;42.710;23.378;2023-06-01T05:51:14;95325.66;;;22.62;89.96
20077;BME280;12348;42.710;23.378;2023-06-01T05:53:41;95337.91;;;23.07;85.93
20077;BME280;12348;42.710;23.378;2023-06-01T05:56:08;95336.06;;;23.34;86.16
20077;BME280;12348;42.710;23.378;2023-06-01T05:58:35;95329.13;;;25.10;81.96
20077;BME280;12348;42.710;23.378;2023-06-01T06:01:03;95320.00;;;26.61;72.39
20077;BME280;12348;42.710;23.378;2023-06-01T06:03:30;95330.53;;;27.86;66.30
20077;BME280;12348;42.710;23.378;2023-06-01T06:05:57;95322.25;;;27.93;69.25
20077;BME280;12348;42.710;23.378;2023-06-01T06:08:24;95326.19;;;27.42;67.64
20077;BME280;12348;42.710;23.378;2023-06-01T06:10:50;95331.28;;;28.29;64.48
20077;BME280;12348;42.710;23.378;2023-06-01T06:13:18;95323.63;;;28.83;64.88
20077;BME280;12348;42.710;23.378;2023-06-01T06:15:44;95327.53;;;28.93;63.32
20077;BME280;12348;42.710;23.378;2023-06-01T06:18:13;95339.13;;;28.70;62.18
20077;BME280;12348;42.710;23.378;2023-06-01T06:20:39;95323.44;;;29.22;61.99
20077;BME280;12348;42.710;23.378;2023-06-01T06:23:06;95329.56;;;26.89;69.27
20077;BME280;12348;42.710;23.378;2023-06-01T06:25:33;95322.09;;;26.86;69.60
20077;BME280;12348;42.710;23.378;2023-06-01T06:28:02;95326.09;;;24.55;76.63
20077;BME280;12348;42.710;23.378;2023-06-01T06:30:29;95329.56;;;24.22;80.60
20077;BME280;12348;42.710;23.378;2023-06-01T06:32:56;95331.72;;;24.06;81.95
20077;BME280;12348;42.710;23.378;2023-06-01T06:35:24;95346.28;;;23.14;85.96
20077;BME280;12348;42.710;23.378;2023-06-01T06:37:51;95339.03;;;23.48;85.94
20077;BME280;12348;42.710;23.378;2023-06-01T06:40:17;95338.91;;;23.64;85.54
20077;BME280;12348;42.710;23.378;2023-06-01T06:42:45;95335.03;;;23.92;82.59
20077;BME280;12348;42.710;23.378;2023-06-01T06:45:13;95334.03;;;24.04;84.43
20077;BME280;12348;42.710;23.378;2023-06-01T06:47:40;95333.69;;;23.82;85.92
20077;BME280;12348;42.710;23.378;2023-06-01T06:50:08;95321.31;;;24.82;82.34
20077;BME280;12348;42.710;23.378;2023-06-01T06:52:37;95322.78;;;25.47;78.53
20077;BME280;12348;42.710;23.378;2023-06-01T06:55:04;95328.44;;;26.97;73.68
20077;BME280;12348;42.710;23.378;2023-06-01T06:57:31;95319.81;;;27.16;71.38
20077;BME280;12348;42.710;23.378;2023-06-01T06:59:59;95330.50;;;28.28;69.46
20077;BME280;12348;42.710;23.378;2023-06-01T07:02:30;95332.16;;;27.94;68.53
20077;BME280;12348;42.710;23.378;2023-06-01T07:04:58;95329.00;;;29.15;64.00
20077;BME280;12348;42.710;23.378;2023-06-01T07:07:25;95322.50;;;30.78;59.44
20077;BME280;12348;42.710;23.378;2023-06-01T07:09:53;95320.88;;;31.11;57.95
20077;BME280;12348;42.710;23.378;2023-06-01T07:12:20;95322.06;;;32.15;55.95
20077;BME280;12348;42.710;23.378;2023-06-01T07:14:47;95315.94;;;33.07;52.88
20077;BME280;12348;42.710;23.378;2023-06-01T07:17:13;95319.88;;;33.10;51.97
20077;BME280;12348;42.710;23.378;2023-06-01T07:19:40;95313.84;;;34.45;48.22
20077;BME280;12348;42.710;23.378;2023-06-01T07:22:07;95312.50;;;33.56;50.42
20077;BME280;12348;42.710;23.378;2023-06-01T07:24:34;95318.66;;;33.11;50.79
20077;BME280;12348;42.710;23.378;2023-06-01T07:27:02;95317.94;;;34.12;48.68
20077;BME280;12348;42.710;23.378;2023-06-01T07:29:30;95306.94;;;35.46;46.35
20077;BME280;12348;42.710;23.378;2023-06-01T07:31:57;95303.47;;;34.75;47.29
20077;BME280;12348;42.710;23.378;2023-06-01T07:34:24;95303.53;;;34.42;46.39
20077;BME280;12348;42.710;23.378;2023-06-01T07:36:51;95299.38;;;32.37;52.39
20077;BME280;12348;42.710;23.378;2023-06-01T07:39:18;95294.59;;;31.43;53.81
20077;BME280;12348;42.710;23.378;2023-06-01T07:41:45;95299.81;;;30.46;56.90
20077;BME280;12348;42.710;23.378;2023-06-01T07:44:14;95290.38;;;30.36;57.91
20077;BME280;12348;42.710;23.378;2023-06-01T07:46:44;95294.31;;;30.38;58.29
20077;BME280;12348;42.710;23.378;2023-06-01T07:49:11;95283.09;;;30.49;57.37
20077;BME280;12348;42.710;23.378;2023-06-01T07:51:39;95288.41;;;31.01;56.84
20077;BME280;12348;42.710;23.378;2023-06-01T07:54:06;95282.38;;;30.76;57.47
20077;BME280;12348;42.710;23.378;2023-06-01T07:56:33;95275.09;;;29.20;61.60
20077;BME280;12348;42.710;23.378;2023-06-01T07:59:00;95278.00;;;29.02;63.58
20077;BME280;12348;42.710;23.378;2023-06-01T08:01:28;95274.56;;;29.43;63.79
20077;BME280;12348;42.710;23.378;2023-06-01T08:03:55;95280.81;;;31.05;59.46
20077;BME280;12348;42.710;23.378;2023-06-01T08:06:25;95272.50;;;31.29;58.01
20077;BME280;12348;42.710;23.378;2023-06-01T08:08:52;95277.59;;;31.61;54.68
20077;BME280;12348;42.710;23.378;2023-06-01T08:11:19;95278.47;;;31.31;54.32
20077;BME280;12348;42.710;23.378;2023-06-01T08:13:47;95275.50;;;29.18;61.25
20077;BME280;12348;42.710;23.378;2023-06-01T08:16:13;95276.97;;;29.34;62.09
20077;BME280;12348;42.710;23.378;2023-06-01T08:18:42;95275.94;;;30.10;61.07
20077;BME280;12348;42.710;23.378;2023-06-01T08:21:09;95266.81;;;30.82;58.54
20077;BME280;12348;42.710;23.378;2023-06-01T08:23:36;95267.91;;;30.23;58.19
20077;BME280;12348;42.710;23.378;2023-06-01T08:26:03;95265.31;;;30.77;57.21
20077;BME280;12348;42.710;23.378;2023-06-01T08:28:30;95265.22;;;31.89;54.53
20077;BME280;12348;42.710;23.378;2023-06-01T08:30:57;95262.41;;;32.13;54.41
20077;BME280;12348;42.710;23.378;2023-06-01T08:33:24;95257.00;;;29.98;59.62
20077;BME280;12348;42.710;23.378;2023-06-01T08:35:53;95251.09;;;30.34;59.84
20077;BME280;12348;42.710;23.378;2023-06-01T08:38:20;95254.00;;;30.23;58.25
20077;BME280;12348;42.710;23.378;2023-06-01T08:40:47;95254.88;;;30.16;59.82
20077;BME280;12348;42.710;23.378;2023-06-01T08:43:18;95253.72;;;28.29;62.27
20077;BME280;12348;42.710;23.378;2023-06-01T08:45:46;95248.25;;;28.11;65.83
20077;BME280;12348;42.710;23.378;2023-06-01T08:48:16;95245.13;;;28.02;66.95
20077;BME280;12348;42.710;23.378;2023-06-01T08:50:44;95245.00;;;29.70;63.47
20077;BME280;12348;42.710;23.378;2023-06-01T08:53:17;95239.56;;;28.93;62.13
20077;BME280;12348;42.710;23.378;2023-06-01T08:55:46;95241.38;;;28.55;66.24
20077;BME280;12348;42.710;23.378;2023-06-01T08:58:16;95227.63;;;29.11;64.82
20077;BME280;12348;42.710;23.378;2023-06-01T09:00:43;95230.88;;;29.51;61.44
20077;BME280;12348;42.710;23.378;2023-06-01T09:03:13;95225.88;;;31.36;57.85
20077;BME280;12348;42.710;23.378;2023-06-01T09:05:40;95219.38;;;32.14;54.48
20077;BME280;12348;42.710;23.378;2023-06-01T09:08:07;95220.25;;;31.40;55.17
20077;BME280;12348;42.710;23.378;2023-06-01T09:10:36;95221.56;;;29.71;57.88
20077;BME280;12348;42.710;23.378;2023-06-01T09:13:02;95222.59;;;30.91;57.43
20077;BME280;12348;42.710;23.378;2023-06-01T09:15:30;95222.69;;;32.28;54.36
20077;BME280;12348;42.710;23.378;2023-06-01T09:18:07;95219.31;;;32.77;51.28
20077;BME280;12348;42.710;23.378;2023-06-01T09:20:35;95219.34;;;34.53;48.86
20077;BME280;12348;42.710;23.378;2023-06-01T09:23:03;95218.78;;;35.51;44.07
20077;BME280;12348;42.710;23.378;2023-06-01T09:25:32;95212.66;;;34.76;44.75
20077;BME280;12348;42.710;23.378;2023-06-01T09:28:01;95211.69;;;34.41;45.85
20077;BME280;12348;42.710;23.378;2023-06-01T09:30:38;95213.50;;;35.02;43.56
20077;BME280;12348;42.710;23.378;2023-06-01T09:33:10;95219.00;;;35.31;42.12
20077;BME280;12348;42.710;23.378;2023-06-01T09:35:40;95207.25;;;35.24;41.32
20077;BME280;12348;42.710;23.378;2023-06-01T09:38:08;95197.88;;;34.21;42.51
20077;BME280;12348;42.710;23.378;2023-06-01T09:40:36;95192.16;;;33.79;44.95
20077;BME280;12348;42.710;23.378;2023-06-01T09:43:18;95187.13;;;34.61;42.70
20077;BME280;12348;42.710;23.378;2023-06-01T09:46:03;95189.75;;;34.39;41.57
20077;BME280;12348;42.710;23.378;2023-06-01T09:48:30;95179.75;;;34.55;43.12
20077;BME280;12348;42.710;23.378;2023-06-01T09:50:57;95174.38;;;33.73;45.75
20077;BME280;12348;42.710;23.378;2023-06-01T09:53:24;95173.31;;;34.41;44.15
20077;BME280;12348;42.710;23.378;2023-06-01T09:55:58;95166.63;;;33.64;44.94
20077;BME280;12348;42.710;23.378;2023-06-01T09:58:26;95166.47;;;34.30;43.98
20077;BME280;12348;42.710;23.378;2023-06-01T10:00:53;95161.38;;;34.54;42.87
20077;BME280;12348;42.710;23.378;2023-06-01T10:03:21;95160.06;;;34.84;41.54
20077;BME280;12348;42.710;23.378;2023-06-01T10:05:49;95159.63;;;34.98;42.36
20077;BME280;12348;42.710;23.378;2023-06-01T10:08:17;95164.25;;;35.05;42.63
20077;BME280;12348;42.710;23.378;2023-06-01T10:10:46;95149.44;;;34.91;42.16
20077;BME280;12348;42.710;23.378;2023-06-01T10:13:13;95153.72;;;35.09;39.06
20077;BME280;12348;42.710;23.378;2023-06-01T10:15:41;95153.53;;;35.63;36.81
20077;BME280;12348;42.710;23.378;2023-06-01T10:18:08;95155.44;;;36.23;36.44
20077;BME280;12348;42.710;23.378;2023-06-01T10:20:37;95148.94;;;36.04;36.39
20077;BME280;12348;42.710;23.378;2023-06-01T10:23:05;95146.75;;;35.13;36.20
20077;BME280;12348;42.710;23.378;2023-06-01T10:25:34;95153.66;;;35.60;36.82
20077;BME280;12348;42.710;23.378;2023-06-01T10:28:05;95154.97;;;35.68;37.10
20077;BME280;12348;42.710;23.378;2023-06-01T10:30:33;95145.84;;;34.53;37.08
20077;BME280;12348;42.710;23.378;2023-06-01T10:33:02;95143.00;;;32.67;40.50
20077;BME280;12348;42.710;23.378;2023-06-01T10:35:56;95139.28;;;31.07;45.30
20077;BME280;12348;42.710;23.378;2023-06-01T10:38:26;95138.06;;;31.79;44.29
20077;BME280;12348;42.710;23.378;2023-06-01T10:41:26;95137.50;;;31.88;44.06
20077;BME280;12348;42.710;23.378;2023-06-01T10:43:54;95142.44;;;31.09;44.80
20077;BME280;12348;42.710;23.378;2023-06-01T10:46:40;95134.66;;;29.78;47.83
20077;BME280;12348;42.710;23.378;2023-06-01T10:49:09;95125.97;;;29.31;49.67
20077;BME280;12348;42.710;23.378;2023-06-01T10:51:36;95124.09;;;29.25;49.61
20077;BME280;12348;42.710;23.378;2023-06-01T10:54:27;95128.06;;;28.68;51.43
20077;BME280;12348;42.710;23.378;2023-06-01T10:57:25;95121.63;;;28.82;49.58
20077;BME280;12348;42.710;23.378;2023-06-01T11:00:15;95106.09;;;28.98;50.56
20077;BME280;12348;42.710;23.378;2023-06-01T11:02:43;95117.38;;;29.63;48.68
20077;BME280;12348;42.710;23.378;2023-06-01T11:05:41;95110.66;;;29.57;44.05
20077;BME280;12348;42.710;23.378;2023-06-01T11:11:13;95103.56;;;29.90;44.88
20077;BME280;12348;42.710;23.378;2023-06-01T11:13:42;95101.16;;;30.54;43.35
20077;BME280;12348;42.710;23.378;2023-06-01T11:16:28;95105.09;;;29.95;44.01
20077;BME280;12348;42.710;23.378;2023-06-01T11:18:56;95103.03;;;29.68;43.94
20077;BME280;12348;42.710;23.378;2023-06-01T11:21:26;95110.19;;;28.80;46.12
20077;BME280;12348;42.710;23.378;2023-06-01T11:23:55;95106.44;;;28.45;46.02
20077;BME280;12348;42.710;23.378;2023-06-01T11:26:28;95098.47;;;27.81;48.24
20077;BME280;12348;42.710;23.378;2023-06-01T11:29:05;95093.47;;;27.15;50.02
20077;BME280;12348;42.710;23.378;2023-06-01T11:31:36;95092.28;;;26.91;51.16
20077;BME280;12348;42.710;23.378;2023-06-01T11:34:03;95097.81;;;26.76;52.27
20077;BME280;12348;42.710;23.378;2023-06-01T11:36:35;95089.91;;;26.50;51.80
20077;BME280;12348;42.710;23.378;2023-06-01T11:39:03;95100.78;;;25.85;52.96
20077;BME280;12348;42.710;23.378;2023-06-01T11:41:34;95098.88;;;24.72;50.03
20077;BME280;12348;42.710;23.378;2023-06-01T11:44:02;95106.22;;;24.54;51.69
20077;BME280;12348;42.710;23.378;2023-06-01T11:46:29;95132.53;;;23.80;56.01
20077;BME280;12348;42.710;23.378;2023-06-01T11:49:00;95109.91;;;22.58;64.00
20077;BME280;12348;42.710;23.378;2023-06-01T11:51:33;95126.41;;;21.57;69.67
20077;BME280;12348;42.710;23.378;2023-06-01T11:54:01;95114.97;;;21.00;74.40
20077;BME280;12348;42.710;23.378;2023-06-01T11:56:29;95119.50;;;20.93;77.15
20077;BME280;12348;42.710;23.378;2023-06-01T11:58:57;95124.28;;;20.48;82.58
20077;BME280;12348;42.710;23.378;2023-06-01T12:01:25;95118.59;;;19.53;92.66
20077;BME280;12348;42.710;23.378;2023-06-01T12:03:52;95122.50;;;19.40;100.00
20077;BME280;12348;42.710;23.378;2023-06-01T12:06:19;95109.69;;;19.28;99.51
20077;BME280;12348;42.710;23.378;2023-06-01T12:08:49;95122.00;;;19.10;100.00
20077;BME280;12348;42.710;23.378;2023-06-01T12:11:18;95103.81;;;18.89;100.00
20077;BME280;12348;42.710;23.378;2023-06-01T12:13:47;95090.06;;;18.98;100.00
20077;BME280;12348;42.710;23.378;2023-06-01T12:16:14;95088.50;;;18.97;100.00
20077;BME280;12348;42.710;23.378;2023-06-01T12:18:43;95090.84;;;19.11;100.00
20077;BME280;12348;42.710;23.378;2023-06-01T12:21:11;95082.28;;;19.25;100.00
20077;BME280;12348;42.710;23.378;2023-06-01T12:23:38;95079.50;;;19.37;99.61
20077;BME280;12348;42.710;23.378;2023-06-01T12:26:06;95078.03;;;19.68;92.22
20077;BME280;12348;42.710;23.378;2023-06-01T12:28:50;95080.66;;;19.92;89.94
20077;BME280;12348;42.710;23.378;2023-06-01T12:31:18;95079.78;;;20.04;87.72
20077;BME280;12348;42.710;23.378;2023-06-01T12:33:47;95077.59;;;20.09;87.16
20077;BME280;12348;42.710;23.378;2023-06-01T12:36:31;95077.84;;;20.20;84.80
20077;BME280;12348;42.710;23.378;2023-06-01T12:38:59;95071.06;;;20.30;85.82
20077;BME280;12348;42.710;23.378;2023-06-01T12:41:27;95080.16;;;20.34;86.24
20077;BME280;12348;42.710;23.378;2023-06-01T12:43:57;95069.63;;;20.04;91.18
20077;BME280;12348;42.710;23.378;2023-06-01T12:46:25;95086.44;;;19.75;93.31
20077;BME280;12348;42.710;23.378;2023-06-01T12:48:52;95084.22;;;19.65;93.74
20077;BME280;12348;42.710;23.378;2023-06-01T12:51:20;95079.00;;;19.47;98.33
20077;BME280;12348;42.710;23.378;2023-06-01T12:53:47;95066.09;;;19.32;100.00
20077;BME280;12348;42.710;23.378;2023-06-01T12:56:14;95065.41;;;19.35;100.00